Airport View

Enter AWOS ICAO identifier for current METAR.

ex. KFNL

KLWT 261154Z AUTO 13004KT 10SM CLR 07/04 A2996 RMK AO2 SLP127 T00720044 10106 20061 55001

26 Jun 2019 12:47

Frequency: 118.375

Phone: 406-538-2653

Other Area AWOS: KMVH - K79S - KGFA - KGTF

TAF KLWT 261120Z 2612/2712 VRB06KT P6SM SCT070 SCT150 TEMPO 2621/2701 VRB30G50KT 4SM +TSRA SCT005 OVC030CB FM270100 VRB06KT P6SM -SHRA SCT030 OVC070 FM270600 VRB06KT P6SM SCT070 SCT150